createdAt,value
2023-02-27T00:01:04.583Z,98391.69
2023-02-27T00:03:32.053Z,98393.72
2023-02-27T00:06:00.847Z,98392.03
2023-02-27T00:08:28.336Z,98391.19
2023-02-27T00:10:55.857Z,98395.09
2023-02-27T00:13:23.307Z,98393.66
2023-02-27T00:15:51.637Z,98396.03
2023-02-27T00:18:19.242Z,98409.44
2023-02-27T00:20:46.684Z,98396.34
2023-02-27T00:23:16.264Z,98389.34
2023-02-27T00:25:43.695Z,98409.88
2023-02-27T00:28:11.148Z,98403.88
2023-02-27T00:30:38.608Z,98407.53
2023-02-27T00:33:06.403Z,98399.34
2023-02-27T00:35:33.876Z,98386.47
2023-02-27T00:38:01.376Z,98399.72
2023-02-27T00:40:30.328Z,98395.16
2023-02-27T00:42:57.756Z,98398.81
2023-02-27T00:45:25.198Z,98400.59
2023-02-27T00:47:52.694Z,98396.75
2023-02-27T00:50:20.396Z,98403.25
2023-02-27T00:52:47.899Z,98406.91
2023-02-27T00:55:15.345Z,98393.56
2023-02-27T00:57:44.231Z,98402.28
2023-02-27T01:00:12.947Z,98403.53
2023-02-27T01:02:40.443Z,98399.88
2023-02-27T01:05:08.797Z,98399.00
2023-02-27T01:07:37.120Z,98403.66
2023-02-27T01:10:06.198Z,98393.00
2023-02-27T01:12:33.632Z,98405.44
2023-02-27T01:15:02.747Z,98407.81
2023-02-27T01:17:30.179Z,98404.41
2023-02-27T01:19:57.630Z,98385.66
2023-02-27T01:22:25.409Z,98391.75
2023-02-27T01:24:52.992Z,98382.09
2023-02-27T01:27:20.468Z,98399.34
2023-02-27T01:29:47.905Z,98390.72
2023-02-27T01:32:17.186Z,98382.06
2023-02-27T01:34:44.913Z,98387.22
2023-02-27T01:37:12.350Z,98387.16
2023-02-27T01:39:39.788Z,98391.66
2023-02-27T01:42:14.034Z,98403.09
2023-02-27T01:45:07.020Z,98394.28
2023-02-27T01:47:36.351Z,98391.34
2023-02-27T01:50:03.705Z,98386.84
2023-02-27T01:52:33.443Z,98396.31
2023-02-27T01:55:01.623Z,98399.00
2023-02-27T01:57:29.094Z,98394.13
2023-02-27T01:59:56.580Z,98397.19
2023-02-27T02:02:29.482Z,98410.28
2023-02-27T02:04:58.523Z,98400.34
2023-02-27T02:07:26.353Z,98402.91
2023-02-27T02:09:55.783Z,98409.16
2023-02-27T02:12:27.667Z,98410.69
2023-02-27T02:14:55.398Z,98407.97
2023-02-27T02:17:30.268Z,98408.09
2023-02-27T02:20:29.595Z,98407.97
2023-02-27T02:23:18.329Z,98407.28
2023-02-27T02:26:25.102Z,98411.41
2023-02-27T02:29:25.658Z,98407.69
2023-02-27T02:32:14.971Z,98412.16
2023-02-27T02:35:03.003Z,98410.44
2023-02-27T02:37:57.143Z,98403.16
2023-02-27T02:40:37.142Z,98404.41
2023-02-27T02:43:11.298Z,98402.09
2023-02-27T02:45:49.185Z,98402.41
2023-02-27T02:48:21.303Z,98409.06
2023-02-27T02:50:54.936Z,98404.72
2023-02-27T02:53:37.109Z,98408.00
2023-02-27T02:56:11.767Z,98407.97
2023-02-27T02:58:47.334Z,98406.34
2023-02-27T03:01:17.754Z,98409.75
2023-02-27T03:03:50.640Z,98422.69
2023-02-27T03:06:22.324Z,98421.63
2023-02-27T03:08:54.792Z,98427.22
2023-02-27T03:11:27.776Z,98434.69
2023-02-27T03:14:00.428Z,98419.00
2023-02-27T03:16:32.284Z,98416.25
2023-02-27T03:19:06.810Z,98425.84
2023-02-27T03:21:39.893Z,98433.63
2023-02-27T03:24:12.347Z,98434.69
2023-02-27T03:26:45.491Z,98427.38
2023-02-27T03:29:20.742Z,98442.25
2023-02-27T03:31:55.072Z,98434.16
2023-02-27T03:34:28.374Z,98444.81
2023-02-27T03:37:02.000Z,98450.06
2023-02-27T03:39:40.974Z,98449.06
2023-02-27T03:42:16.948Z,98437.97
2023-02-27T03:44:55.692Z,98444.13
2023-02-27T03:47:23.361Z,98446.09
2023-02-27T03:49:52.013Z,98457.44
2023-02-27T03:52:20.664Z,98449.53
2023-02-27T03:54:54.041Z,98439.31
2023-02-27T03:57:23.266Z,98443.09
2023-02-27T03:59:51.245Z,98456.53
2023-02-27T04:02:18.770Z,98464.28
2023-02-27T04:04:46.383Z,98464.00
2023-02-27T04:07:24.816Z,98438.16
2023-02-27T04:10:29.116Z,98444.66
2023-02-27T04:13:29.417Z,98442.25
2023-02-27T04:16:15.763Z,98436.06
2023-02-27T04:19:01.163Z,98442.16
2023-02-27T04:21:36.277Z,98444.00
2023-02-27T04:24:14.698Z,98454.47
2023-02-27T04:26:47.765Z,98456.97
2023-02-27T04:29:19.980Z,98453.09
2023-02-27T04:31:54.871Z,98451.22
2023-02-27T04:34:30.103Z,98463.94
2023-02-27T04:37:02.018Z,98460.03
2023-02-27T04:39:35.200Z,98457.28
2023-02-27T04:42:06.199Z,98456.56
2023-02-27T04:44:37.265Z,98455.84
2023-02-27T04:47:09.253Z,98460.69
2023-02-27T04:49:42.652Z,98460.03
2023-02-27T04:52:14.161Z,98453.09
2023-02-27T04:54:46.170Z,98460.47
2023-02-27T04:57:19.572Z,98472.56
2023-02-27T04:59:52.281Z,98472.69
2023-02-27T05:02:27.645Z,98471.31
2023-02-27T05:05:00.152Z,98469.38
2023-02-27T05:07:34.423Z,98473.59
2023-02-27T05:10:04.812Z,98468.34
2023-02-27T05:12:36.612Z,98476.03
2023-02-27T05:15:09.945Z,98491.38
2023-02-27T05:17:42.592Z,98485.56
2023-02-27T05:20:12.976Z,98493.22
2023-02-27T05:22:48.870Z,98479.75
2023-02-27T05:25:24.572Z,98479.59
2023-02-27T05:27:55.427Z,98487.63
2023-02-27T05:30:28.741Z,98499.63
2023-02-27T05:33:02.764Z,98499.75
2023-02-27T05:35:34.943Z,98508.09
2023-02-27T05:38:07.013Z,98505.06
2023-02-27T05:40:38.075Z,98499.56
2023-02-27T05:43:09.978Z,98507.91
2023-02-27T05:45:41.603Z,98509.56
2023-02-27T05:48:17.784Z,98504.31
2023-02-27T05:50:49.863Z,98508.47
2023-02-27T05:53:21.048Z,98517.97
2023-02-27T05:55:53.078Z,98528.63
2023-02-27T05:58:24.953Z,98520.84
2023-02-27T06:00:55.492Z,98521.78
2023-02-27T06:03:24.366Z,98529.75
2023-02-27T06:05:54.066Z,98535.38
2023-02-27T06:08:22.561Z,98535.38
2023-02-27T06:10:50.631Z,98531.28
2023-02-27T06:13:18.600Z,98537.34
2023-02-27T06:15:46.724Z,98541.47
2023-02-27T06:18:14.838Z,98538.22
2023-02-27T06:20:45.036Z,98547.84
2023-02-27T06:23:13.782Z,98549.16
2023-02-27T06:25:42.374Z,98538.06
2023-02-27T06:28:10.346Z,98546.09
2023-02-27T06:30:38.245Z,98545.19
2023-02-27T06:33:05.845Z,98544.47
2023-02-27T06:35:33.363Z,98552.75
2023-02-27T06:38:02.202Z,98549.34
2023-02-27T06:40:29.721Z,98547.09
2023-02-27T06:42:57.240Z,98546.41
2023-02-27T06:45:25.076Z,98554.31
2023-02-27T06:47:52.581Z,98553.34
2023-02-27T06:50:20.229Z,98556.44
2023-02-27T06:52:47.693Z,98556.81
2023-02-27T06:55:20.155Z,98564.34
2023-02-27T06:57:48.186Z,98556.28
2023-02-27T07:00:17.144Z,98557.34
2023-02-27T07:02:45.295Z,98562.34
2023-02-27T07:05:12.836Z,98572.16
2023-02-27T07:07:40.965Z,98566.22
2023-02-27T07:10:12.652Z,98552.31
2023-02-27T07:12:41.749Z,98556.84
2023-02-27T07:15:09.890Z,98554.22
2023-02-27T07:17:37.818Z,98546.72
2023-02-27T07:20:06.451Z,98548.75
2023-02-27T07:22:33.940Z,98553.25
2023-02-27T07:25:01.374Z,98544.84
2023-02-27T07:27:29.709Z,98542.94
2023-02-27T07:29:58.503Z,98542.69
2023-02-27T07:32:26.022Z,98538.91
2023-02-27T07:34:53.623Z,98529.50
2023-02-27T07:37:21.076Z,98562.19
2023-02-27T07:39:48.514Z,98556.44
2023-02-27T07:42:16.560Z,98554.50
2023-02-27T07:44:44.011Z,98556.25
2023-02-27T07:47:12.852Z,98565.66
2023-02-27T07:49:40.302Z,98546.81
2023-02-27T07:52:08.287Z,98551.09
2023-02-27T07:54:37.439Z,98563.44
2023-02-27T07:57:04.934Z,98562.81
2023-02-27T07:59:32.595Z,98562.06
2023-02-27T08:02:00.044Z,98564.00
2023-02-27T08:04:28.894Z,98551.09
2023-02-27T08:06:56.887Z,98552.34
2023-02-27T08:09:24.502Z,98549.97
2023-02-27T08:11:51.943Z,98550.88
2023-02-27T08:14:19.381Z,98550.22
2023-02-27T08:16:46.814Z,98552.00
2023-02-27T08:19:14.863Z,98553.59
2023-02-27T08:21:43.777Z,98554.25
2023-02-27T08:24:11.625Z,98555.47
2023-02-27T08:26:39.090Z,98555.59
2023-02-27T08:29:06.535Z,98562.84
2023-02-27T08:31:34.411Z,98550.63
2023-02-27T08:34:09.965Z,98555.16
2023-02-27T08:36:38.820Z,98554.44
2023-02-27T08:39:08.925Z,98550.50
2023-02-27T08:41:36.635Z,98557.56
2023-02-27T08:44:04.541Z,98545.16
2023-02-27T08:46:32.249Z,98551.88
2023-02-27T08:48:59.729Z,98551.03
2023-02-27T08:51:27.496Z,98547.81
2023-02-27T08:53:58.697Z,98553.81
2023-02-27T08:56:28.741Z,98554.44
2023-02-27T08:58:56.932Z,98557.69
2023-02-27T09:01:27.301Z,98552.34
2023-02-27T09:03:54.978Z,98551.50
2023-02-27T09:06:25.126Z,98553.19
2023-02-27T09:08:53.659Z,98550.97
2023-02-27T09:11:21.166Z,98546.84
2023-02-27T09:13:51.341Z,98547.41
2023-02-27T09:16:18.835Z,98551.50
2023-02-27T09:18:46.354Z,98548.75
2023-02-27T09:21:14.510Z,98553.91
2023-02-27T09:23:42.029Z,98552.75
2023-02-27T09:26:10.160Z,98557.19
2023-02-27T09:28:39.452Z,98562.97
2023-02-27T09:31:08.577Z,98570.47
2023-02-27T09:33:38.193Z,98568.78
2023-02-27T09:36:06.601Z,98572.88
2023-02-27T09:38:34.877Z,98572.13
2023-02-27T09:41:03.100Z,98565.28
2023-02-27T09:43:37.689Z,98576.84
2023-02-27T09:46:07.034Z,98573.47
2023-02-27T09:48:39.564Z,98571.19
2023-02-27T09:51:07.120Z,98570.78
2023-02-27T09:53:38.943Z,98566.72
2023-02-27T09:56:10.759Z,98566.78
2023-02-27T09:58:45.532Z,98567.13
2023-02-27T10:01:19.873Z,98580.03
2023-02-27T10:04:19.103Z,98579.16
2023-02-27T10:06:50.999Z,98583.94
2023-02-27T10:09:38.719Z,98581.28
2023-02-27T10:12:16.122Z,98572.94
2023-02-27T10:14:46.438Z,98573.50
2023-02-27T10:17:19.133Z,98575.47
2023-02-27T10:19:50.142Z,98569.06
2023-02-27T10:22:24.361Z,98559.56
2023-02-27T10:24:58.710Z,98578.09
2023-02-27T10:27:26.254Z,98573.44
2023-02-27T10:30:23.596Z,98576.41
2023-02-27T10:33:00.475Z,98578.91
2023-02-27T10:35:33.652Z,98582.66
2023-02-27T10:38:03.627Z,98584.69
2023-02-27T10:40:31.744Z,98585.25
2023-02-27T10:43:02.884Z,98585.72
2023-02-27T10:45:31.751Z,98592.88
2023-02-27T10:48:01.383Z,98588.66
2023-02-27T10:50:32.785Z,98573.22
2023-02-27T10:53:02.965Z,98583.06
2023-02-27T10:55:32.567Z,98577.66
2023-02-27T10:58:02.280Z,98570.66
2023-02-27T11:00:46.771Z,98572.38
2023-02-27T11:03:21.227Z,98577.63
2023-02-27T11:05:57.080Z,98577.53
2023-02-27T11:08:27.102Z,98591.44
2023-02-27T11:11:00.736Z,98586.13
2023-02-27T11:13:30.156Z,98584.72
2023-02-27T11:16:08.623Z,98586.31
2023-02-27T11:18:37.616Z,98575.72
2023-02-27T11:21:23.018Z,98581.19
2023-02-27T11:23:59.685Z,98574.28
2023-02-27T11:26:30.635Z,98576.06
2023-02-27T11:29:17.858Z,98583.31
2023-02-27T11:31:48.559Z,98568.94
2023-02-27T11:34:22.508Z,98572.56
2023-02-27T11:36:54.399Z,98568.16
2023-02-27T11:39:26.079Z,98571.22
2023-02-27T11:41:54.745Z,98564.69
2023-02-27T11:44:34.462Z,98555.50
2023-02-27T11:47:17.895Z,98558.03
2023-02-27T11:50:26.211Z,98539.75
2023-02-27T11:53:07.011Z,98534.09
2023-02-27T11:55:35.341Z,98535.25
2023-02-27T11:58:12.324Z,98550.81
2023-02-27T12:00:45.420Z,98569.09
2023-02-27T12:03:20.156Z,98543.81
2023-02-27T12:05:50.157Z,98535.19
2023-02-27T12:08:28.722Z,98554.88
2023-02-27T12:11:13.054Z,98548.91
2023-02-27T12:13:47.064Z,98543.00
2023-02-27T12:16:20.994Z,98548.75
2023-02-27T12:18:54.510Z,98555.09
2023-02-27T12:21:25.122Z,98553.81
2023-02-27T12:23:58.439Z,98548.28
2023-02-27T12:26:31.724Z,98550.69
2023-02-27T12:29:05.999Z,98547.81
2023-02-27T12:31:49.331Z,98549.63
2023-02-27T12:34:26.843Z,98554.06
2023-02-27T12:36:54.343Z,98542.13
2023-02-27T12:39:25.741Z,98541.63
2023-02-27T12:42:20.326Z,98542.97
2023-02-27T12:45:10.265Z,98542.53
2023-02-27T12:47:46.072Z,98537.72
2023-02-27T12:50:16.769Z,98537.94
2023-02-27T12:52:59.309Z,98555.38
2023-02-27T12:55:29.851Z,98545.97
2023-02-27T12:58:19.918Z,98549.13
2023-02-27T13:00:51.649Z,98554.25
2023-02-27T13:03:24.868Z,98542.13
2023-02-27T13:06:01.516Z,98537.72
2023-02-27T13:08:49.075Z,98517.84
2023-02-27T13:11:26.385Z,98523.16
2023-02-27T13:13:57.358Z,98539.63
2023-02-27T13:16:32.370Z,98546.50
2023-02-27T13:19:06.914Z,98543.59
2023-02-27T13:21:39.681Z,98552.38
2023-02-27T13:24:25.706Z,98543.09
2023-02-27T13:27:01.492Z,98543.97
2023-02-27T13:29:37.091Z,98551.78
2023-02-27T13:32:17.104Z,98540.00
2023-02-27T13:34:48.982Z,98551.41
2023-02-27T13:37:16.666Z,98545.63
2023-02-27T13:40:01.133Z,98561.72
2023-02-27T13:42:55.018Z,98549.59
2023-02-27T13:45:47.939Z,98550.31
2023-02-27T13:48:37.940Z,98540.00
2023-02-27T13:51:06.754Z,98541.19
2023-02-27T13:53:34.198Z,98540.69
2023-02-27T13:56:20.628Z,98521.13
2023-02-27T13:58:50.238Z,98521.44
2023-02-27T14:01:28.932Z,98511.13
2023-02-27T14:04:02.835Z,98509.97
2023-02-27T14:06:30.981Z,98512.53
2023-02-27T14:09:14.116Z,98523.47
2023-02-27T14:11:54.210Z,98529.22
2023-02-27T14:14:45.727Z,98527.09
2023-02-27T14:17:14.370Z,98529.31
2023-02-27T14:20:00.063Z,98530.28
2023-02-27T14:22:40.022Z,98529.09
2023-02-27T14:25:25.735Z,98531.34
2023-02-27T14:27:57.181Z,98527.88
2023-02-27T14:30:34.926Z,98539.53
2023-02-27T14:33:11.503Z,98551.19
2023-02-27T14:35:39.312Z,98547.94
2023-02-27T14:38:12.329Z,98552.50
2023-02-27T14:40:49.173Z,98546.63
2023-02-27T14:43:27.165Z,98543.25
2023-02-27T14:45:56.790Z,98547.91
2023-02-27T14:48:28.634Z,98542.03
2023-02-27T14:50:57.894Z,98547.47
2023-02-27T14:53:27.838Z,98549.72
2023-02-27T14:55:56.801Z,98549.84
2023-02-27T14:58:25.640Z,98555.13
2023-02-27T15:01:04.231Z,98556.78
2023-02-27T15:03:37.191Z,98552.97
2023-02-27T15:06:12.941Z,98559.09
2023-02-27T15:08:42.733Z,98547.06
2023-02-27T15:11:15.979Z,98554.16
2023-02-27T15:13:45.177Z,98549.59
2023-02-27T15:16:30.337Z,98552.59
2023-02-27T15:19:00.649Z,98561.63
2023-02-27T15:21:32.402Z,98570.75
2023-02-27T15:24:01.561Z,98559.09
2023-02-27T15:26:31.287Z,98571.56
2023-02-27T15:28:59.829Z,98566.31
2023-02-27T15:31:32.123Z,98561.63
2023-02-27T15:34:01.419Z,98559.22
2023-02-27T15:36:30.810Z,98557.78
2023-02-27T15:39:07.503Z,98552.59
2023-02-27T15:41:35.772Z,98560.66
2023-02-27T15:44:04.465Z,98569.44
2023-02-27T15:46:33.725Z,98562.81
2023-02-27T15:49:01.388Z,98565.91
2023-02-27T15:51:29.945Z,98566.13
2023-02-27T15:54:00.993Z,98572.25
2023-02-27T15:56:34.469Z,98569.56
2023-02-27T15:59:03.738Z,98573.03
2023-02-27T16:01:34.838Z,98579.59
2023-02-27T16:04:06.076Z,98580.44
2023-02-27T16:06:35.979Z,98577.19
2023-02-27T16:09:05.863Z,98580.06
2023-02-27T16:11:35.533Z,98580.66
2023-02-27T16:14:03.960Z,98593.06
2023-02-27T16:16:36.061Z,98603.31
2023-02-27T16:19:26.139Z,98605.63
2023-02-27T16:22:12.734Z,98592.41
2023-02-27T16:24:40.529Z,98608.41
2023-02-27T16:27:16.176Z,98600.72
2023-02-27T16:29:46.044Z,98603.19
2023-02-27T16:32:24.612Z,98610.59
2023-02-27T16:34:52.995Z,98613.09
2023-02-27T16:37:22.862Z,98619.59
2023-02-27T16:39:51.981Z,98626.97
2023-02-27T16:42:19.443Z,98620.50
2023-02-27T16:44:47.170Z,98617.63
2023-02-27T16:47:14.639Z,98631.41
2023-02-27T16:49:44.410Z,98631.19
2023-02-27T16:52:12.899Z,98630.56
2023-02-27T16:54:40.363Z,98632.38
2023-02-27T16:57:07.848Z,98643.66
2023-02-27T16:59:36.969Z,98645.22
2023-02-27T17:02:06.360Z,98640.50
2023-02-27T17:04:33.920Z,98645.56
2023-02-27T17:07:06.360Z,98641.81
2023-02-27T17:09:35.019Z,98655.06
2023-02-27T17:12:02.467Z,98656.81
2023-02-27T17:14:29.934Z,98657.94
2023-02-27T17:16:59.627Z,98650.03
2023-02-27T17:19:27.129Z,98657.31
2023-02-27T17:21:54.578Z,98664.16
2023-02-27T17:24:23.610Z,98662.84
2023-02-27T17:26:52.526Z,98676.91
2023-02-27T17:29:20.259Z,98679.88
2023-02-27T17:31:47.822Z,98665.66
2023-02-27T17:34:16.047Z,98694.16
2023-02-27T17:36:43.774Z,98685.31
2023-02-27T17:39:13.715Z,98684.56
2023-02-27T17:41:44.126Z,98686.72
2023-02-27T17:44:12.547Z,98696.28
2023-02-27T17:46:41.141Z,98689.88
2023-02-27T17:49:09.504Z,98690.50
2023-02-27T17:51:36.980Z,98692.00
2023-02-27T17:54:06.225Z,98702.00
2023-02-27T17:56:36.662Z,98693.91
2023-02-27T17:59:07.560Z,98692.88
2023-02-27T18:01:36.641Z,98710.81
2023-02-27T18:04:04.958Z,98694.66
2023-02-27T18:06:32.391Z,98710.88
2023-02-27T18:09:00.042Z,98701.41
2023-02-27T18:11:27.506Z,98709.28
2023-02-27T18:13:54.957Z,98719.09
2023-02-27T18:16:24.410Z,98710.53
2023-02-27T18:18:51.871Z,98708.44
2023-02-27T18:21:21.726Z,98720.66
2023-02-27T18:23:50.546Z,98706.78
2023-02-27T18:26:32.763Z,98710.03
2023-02-27T18:29:02.282Z,98710.75
2023-02-27T18:31:32.595Z,98720.81
2023-02-27T18:34:00.354Z,98721.44
2023-02-27T18:36:28.303Z,98715.38
2023-02-27T18:38:55.946Z,98726.56
2023-02-27T18:41:23.490Z,98721.56
2023-02-27T18:43:51.056Z,98725.94
2023-02-27T18:46:18.715Z,98723.31
2023-02-27T18:48:48.108Z,98721.41
2023-02-27T18:51:17.280Z,98711.06
2023-02-27T18:53:45.781Z,98716.97
2023-02-27T18:56:14.375Z,98724.69
2023-02-27T18:58:41.852Z,98731.09
2023-02-27T19:01:09.552Z,98732.38
2023-02-27T19:03:37.109Z,98736.63
2023-02-27T19:06:06.495Z,98735.53
2023-02-27T19:08:33.926Z,98739.13
2023-02-27T19:11:01.375Z,98733.09
2023-02-27T19:13:28.824Z,98742.38
2023-02-27T19:15:56.435Z,98737.56
2023-02-27T19:18:23.886Z,98744.28
2023-02-27T19:20:51.333Z,98746.00
2023-02-27T19:23:20.114Z,98743.66
2023-02-27T19:25:48.872Z,98741.75
2023-02-27T19:28:16.312Z,98742.66
2023-02-27T19:30:43.767Z,98741.84
2023-02-27T19:33:11.274Z,98733.94
2023-02-27T19:35:43.165Z,98731.75
2023-02-27T19:38:11.064Z,98732.06
2023-02-27T19:40:39.899Z,98732.97
2023-02-27T19:43:07.458Z,98729.09
2023-02-27T19:45:35.255Z,98726.69
2023-02-27T19:48:02.720Z,98730.97
2023-02-27T19:50:30.236Z,98736.41
2023-02-27T19:52:58.532Z,98734.06
2023-02-27T19:55:27.529Z,98730.59
2023-02-27T19:57:56.348Z,98734.00
2023-02-27T20:00:24.691Z,98738.75
2023-02-27T20:02:52.120Z,98734.53
2023-02-27T20:05:20.971Z,98737.66
2023-02-27T20:07:48.465Z,98737.34
2023-02-27T20:10:16.539Z,98739.44
2023-02-27T20:12:44.031Z,98751.91
2023-02-27T20:15:13.292Z,98752.41
2023-02-27T20:17:41.947Z,98739.81
2023-02-27T20:20:10.604Z,98752.00
2023-02-27T20:22:38.772Z,98745.56
2023-02-27T20:25:06.812Z,98744.16
2023-02-27T20:27:34.626Z,98747.69
2023-02-27T20:30:02.257Z,98741.28
2023-02-27T20:32:31.164Z,98739.13
2023-02-27T20:34:58.668Z,98742.25
2023-02-27T20:37:28.656Z,98743.75
2023-02-27T20:39:56.252Z,98734.38
2023-02-27T20:42:23.717Z,98744.34
2023-02-27T20:44:51.194Z,98745.41
2023-02-27T20:47:18.654Z,98738.47
2023-02-27T20:49:47.454Z,98736.84
2023-02-27T20:52:14.888Z,98736.91
2023-02-27T20:54:42.375Z,98732.66
2023-02-27T20:57:09.822Z,98729.50
2023-02-27T20:59:37.293Z,98728.91
2023-02-27T21:02:06.768Z,98729.41
2023-02-27T21:04:43.257Z,98728.81
2023-02-27T21:07:13.923Z,98723.53
2023-02-27T21:09:41.576Z,98735.47
2023-02-27T21:12:09.605Z,98729.44
2023-02-27T21:14:37.608Z,98729.31
2023-02-27T21:17:05.512Z,98726.97
2023-02-27T21:19:33.033Z,98726.66
2023-02-27T21:22:00.816Z,98727.97
2023-02-27T21:24:32.003Z,98726.06
2023-02-27T21:27:00.166Z,98729.81
2023-02-27T21:29:27.602Z,98725.94
2023-02-27T21:31:55.085Z,98721.94
2023-02-27T21:34:26.005Z,98715.53
2023-02-27T21:36:54.154Z,98712.88
2023-02-27T21:39:23.708Z,98708.66
2023-02-27T21:41:53.452Z,98716.34
2023-02-27T21:44:24.849Z,98701.91
2023-02-27T21:46:52.972Z,98707.41
2023-02-27T21:49:22.522Z,98703.59
2023-02-27T21:51:50.899Z,98710.13
2023-02-27T21:54:20.319Z,98705.25
2023-02-27T21:56:49.472Z,98709.09
2023-02-27T21:59:19.000Z,98700.00
2023-02-27T22:01:47.990Z,98701.91
2023-02-27T22:04:16.188Z,98703.25
2023-02-27T22:06:43.984Z,98699.16
2023-02-27T22:09:11.968Z,98699.84
2023-02-27T22:11:40.718Z,98701.66
2023-02-27T22:14:09.654Z,98701.03
2023-02-27T22:16:38.925Z,98692.31
2023-02-27T22:19:07.531Z,98698.75
2023-02-27T22:21:35.640Z,98705.66
2023-02-27T22:24:03.574Z,98700.94
2023-02-27T22:26:32.334Z,98710.56
2023-02-27T22:29:00.757Z,98706.97
2023-02-27T22:31:30.313Z,98703.31
2023-02-27T22:34:03.408Z,98686.94
2023-02-27T22:36:32.237Z,98699.41
2023-02-27T22:39:00.264Z,98695.06
2023-02-27T22:41:30.477Z,98704.34
2023-02-27T22:43:58.901Z,98704.22
2023-02-27T22:46:28.454Z,98698.81
2023-02-27T22:48:56.841Z,98696.66
2023-02-27T22:51:28.380Z,98703.94
2023-02-27T22:53:57.505Z,98709.28
2023-02-27T22:56:25.408Z,98718.28
2023-02-27T22:58:53.816Z,98709.34
2023-02-27T23:01:25.342Z,98699.69
2023-02-27T23:03:54.879Z,98699.31
2023-02-27T23:06:28.748Z,98695.56
2023-02-27T23:08:56.228Z,98707.22
2023-02-27T23:11:24.256Z,98700.44
2023-02-27T23:13:52.050Z,98712.75
2023-02-27T23:16:20.206Z,98707.81
2023-02-27T23:18:49.347Z,98700.72
2023-02-27T23:21:18.537Z,98717.06
2023-02-27T23:23:47.661Z,98702.84
2023-02-27T23:26:15.430Z,98700.53
2023-02-27T23:28:43.193Z,98705.34
2023-02-27T23:31:10.836Z,98701.00
2023-02-27T23:33:38.302Z,98696.72
2023-02-27T23:36:06.260Z,98700.28
2023-02-27T23:38:34.018Z,98697.38
2023-02-27T23:41:07.487Z,98706.69
2023-02-27T23:43:35.011Z,98703.28
2023-02-27T23:46:08.014Z,98691.72
2023-02-27T23:48:36.014Z,98689.94
2023-02-27T23:51:04.473Z,98695.56
2023-02-27T23:53:33.049Z,98693.28
2023-02-27T23:56:00.860Z,98674.66
2023-02-27T23:58:29.655Z,98690.91
